Time;durP1;ratioP1;P1;durP2;ratioP2;P2;SDS_P1;SDS_P2;PMS_P1;PMS_P2;Temp;Humidity;BMP_temperature;BMP_pressure;BME280_temperature;BME280_humidity;BME280_pressure;Samples;Min_cycle;Max_cycle;Signal;HPM_P1;HPM_P2
2022/07/29 00:00:28;;;;;;;6.55;1.70;;;17.10;99.90;;;;;;5028351;28;25087;-65
2022/07/29 00:02:54;;;;;;;4.47;1.90;;;17.10;99.90;;;;;;5025363;28;25078;-64
2022/07/29 00:05:20;;;;;;;5.72;1.88;;;17.10;99.90;;;;;;5028157;28;25080;-66
2022/07/29 00:07:45;;;;;;;2.40;1.88;;;17.00;99.90;;;;;;5023659;28;25064;-67
2022/07/29 00:10:11;;;;;;;2.88;1.42;;;17.00;99.90;;;;;;5018010;28;25066;-66
2022/07/29 00:12:37;;;;;;;2.80;1.50;;;17.10;99.90;;;;;;5024452;28;25161;-67
2022/07/29 00:15:03;;;;;;;2.17;1.63;;;17.20;99.90;;;;;;5023238;28;25076;-68
2022/07/29 00:17:29;;;;;;;1.98;1.10;;;17.10;99.90;;;;;;5025607;28;25102;-67
2022/07/29 00:19:54;;;;;;;2.08;1.60;;;17.10;99.90;;;;;;5022178;28;25117;-68
2022/07/29 00:22:20;;;;;;;3.65;1.50;;;17.00;99.90;;;;;;5028241;28;25104;-66
2022/07/29 00:24:48;;;;;;;7.07;1.60;;;16.90;99.90;;;;;;5026526;28;25089;-65
2022/07/29 00:27:14;;;;;;;3.90;1.65;;;16.90;99.90;;;;;;5026941;28;25137;-66
2022/07/29 00:29:39;;;;;;;8.55;1.92;;;16.90;99.90;;;;;;5028441;28;25089;-67
2022/07/29 00:32:05;;;;;;;4.60;2.03;;;16.90;99.90;;;;;;5027853;28;25072;-68
2022/07/29 00:37:15;;;;;;;3.65;1.58;;;16.90;99.90;;;;;;5026859;28;25073;-65
2022/07/29 00:39:41;;;;;;;3.17;1.77;;;16.80;99.90;;;;;;5027406;28;25125;-65
2022/07/29 00:42:07;;;;;;;11.65;2.17;;;16.70;99.90;;;;;;5026840;28;25120;-66
2022/07/29 00:44:38;;;;;;;4.40;1.85;;;16.70;99.90;;;;;;5026392;28;25084;-67
2022/07/29 00:47:04;;;;;;;5.60;1.65;;;16.60;99.90;;;;;;5024539;28;25066;-66
2022/07/29 00:49:29;;;;;;;3.10;1.52;;;16.60;99.90;;;;;;5026878;28;25134;-66
2022/07/29 00:51:55;;;;;;;4.57;2.83;;;16.60;99.90;;;;;;5026662;28;25060;-65
2022/07/29 00:54:21;;;;;;;5.05;1.80;;;16.60;99.90;;;;;;5025110;28;25137;-68
2022/07/29 00:56:46;;;;;;;9.27;2.30;;;16.60;99.90;;;;;;5022344;28;25079;-65
2022/07/29 00:59:12;;;;;;;2.67;1.88;;;16.60;99.90;;;;;;5018020;28;25071;-66
2022/07/29 01:01:37;;;;;;;9.05;2.40;;;16.50;99.90;;;;;;5022466;28;25175;-66
2022/07/29 01:04:04;;;;;;;7.88;2.03;;;16.50;99.90;;;;;;5022146;28;25057;-65
2022/07/29 01:06:30;;;;;;;4.85;2.00;;;16.40;99.90;;;;;;5019126;28;25168;-67
2022/07/29 01:08:56;;;;;;;3.88;2.38;;;16.50;99.90;;;;;;5031215;28;25073;-65
2022/07/29 01:11:22;;;;;;;4.25;1.50;;;16.60;99.90;;;;;;5028388;28;25083;-67
2022/07/29 01:13:48;;;;;;;4.05;1.70;;;16.50;99.90;;;;;;5023080;28;25056;-66
2022/07/29 01:16:21;;;;;;;2.00;1.67;;;16.70;99.90;;;;;;5026541;28;25072;-66
2022/07/29 01:18:51;;;;;;;3.88;2.00;;;16.60;99.90;;;;;;5021929;28;25077;-65
2022/07/29 01:21:35;;;;;;;4.20;1.80;;;16.50;99.90;;;;;;5021720;28;25132;-66
2022/07/29 01:24:19;;;;;;;5.03;1.90;;;16.50;99.90;;;;;;5014667;28;25101;-65
2022/07/29 01:27:08;;;;;;;3.35;2.22;;;16.50;99.90;;;;;;5019996;28;25156;-65
2022/07/29 01:29:41;;;;;;;10.40;2.28;;;16.40;99.90;;;;;;5023200;28;25060;-66
2022/07/29 01:32:06;;;;;;;;;;;16.50;99.90;;;;;;5026091;28;25074;-66
2022/07/29 01:34:41;;;;;;;4.90;2.10;;;16.50;99.90;;;;;;5023554;28;24066;-63
2022/07/29 01:37:19;;;;;;;5.88;1.67;;;16.40;99.90;;;;;;5032809;28;25081;-66
2022/07/29 01:39:47;;;;;;;5.78;2.42;;;16.40;99.90;;;;;;5030523;28;25141;-66
2022/07/29 01:42:12;;;;;;;3.65;1.60;;;16.30;99.90;;;;;;5025978;28;25097;-65
2022/07/29 01:44:48;;;;;;;6.20;1.75;;;16.40;99.90;;;;;;5021577;28;25152;-66
2022/07/29 01:47:20;;;;;;;3.78;1.90;;;16.50;99.90;;;;;;5028163;28;25082;-66
2022/07/29 01:49:49;;;;;;;;;;;16.50;99.90;;;;;;5021517;28;25095;-66
2022/07/29 01:52:30;;;;;;;5.65;1.80;;;16.50;99.90;;;;;;5023289;28;24086;-66
2022/07/29 01:55:02;;;;;;;5.68;2.08;;;16.50;99.90;;;;;;5021446;28;25076;-65
2022/07/29 01:57:30;;;;;;;3.60;2.03;;;16.50;99.90;;;;;;5018264;28;25074;-65
2022/07/29 01:59:58;;;;;;;5.97;2.10;;;16.50;99.90;;;;;;5015972;28;25109;-66
2022/07/29 02:02:24;;;;;;;5.18;2.08;;;16.60;99.90;;;;;;5030123;28;25050;-66
2022/07/29 02:04:51;;;;;;;8.82;2.28;;;16.50;99.90;;;;;;5023863;28;25082;-65
2022/07/29 02:07:21;;;;;;;2.53;1.85;;;16.60;99.90;;;;;;5023690;28;25076;-66
2022/07/29 02:09:49;;;;;;;4.20;2.50;;;16.50;99.90;;;;;;5027902;28;25077;-66
2022/07/29 02:12:17;;;;;;;4.60;1.92;;;16.40;99.90;;;;;;5025823;28;25071;-66
2022/07/29 02:14:51;;;;;;;3.42;2.08;;;16.40;99.90;;;;;;5024865;28;25094;-69
2022/07/29 02:17:23;;;;;;;3.20;1.95;;;16.30;99.90;;;;;;5018026;28;25143;-65
2022/07/29 02:19:49;;;;;;;4.75;2.20;;;16.30;99.90;;;;;;5019304;28;24818;-65
2022/07/29 02:22:18;;;;;;;4.90;2.15;;;16.30;99.90;;;;;;5028875;28;25049;-66
2022/07/29 02:24:44;;;;;;;5.50;1.85;;;16.30;99.90;;;;;;5018912;28;25114;-66
2022/07/29 02:27:11;;;;;;;3.95;2.10;;;16.30;99.90;;;;;;5025070;28;25111;-64
2022/07/29 02:29:39;;;;;;;3.13;1.95;;;16.40;99.90;;;;;;5024882;28;25160;-65
2022/07/29 02:32:06;;;;;;;6.10;2.08;;;16.40;99.90;;;;;;5039690;28;25056;-64
2022/07/29 02:34:34;;;;;;;2.90;1.90;;;16.50;99.90;;;;;;5023972;28;25051;-66
2022/07/29 02:37:00;;;;;;;5.05;2.28;;;16.30;99.90;;;;;;5025072;28;25132;-67
2022/07/29 02:39:27;;;;;;;5.85;2.30;;;16.30;99.90;;;;;;5024042;28;25076;-65
2022/07/29 02:42:01;;;;;;;6.13;2.10;;;16.40;99.90;;;;;;5030721;28;25062;-66
2022/07/29 02:44:26;;;;;;;6.93;2.05;;;16.30;99.90;;;;;;5034040;28;25074;-66
2022/07/29 02:47:04;;;;;;;5.07;2.70;;;16.30;99.90;;;;;;5025006;28;25065;-64
2022/07/29 02:49:57;;;;;;;4.22;2.47;;;16.10;99.90;;;;;;5030513;28;25070;-65
2022/07/29 02:52:28;;;;;;;4.40;2.33;;;16.10;99.90;;;;;;5017524;28;25081;-65
2022/07/29 02:54:58;;;;;;;6.72;2.10;;;16.00;99.90;;;;;;5023519;28;25072;-66
2022/07/29 02:57:34;;;;;;;6.75;2.47;;;16.10;99.90;;;;;;5022675;28;25058;-66
2022/07/29 03:00:05;;;;;;;3.67;2.60;;;16.10;99.90;;;;;;5018494;28;25084;-65
2022/07/29 03:02:46;;;;;;;3.67;2.25;;;16.10;99.90;;;;;;5016781;28;25067;-64
2022/07/29 03:05:17;;;;;;;8.07;2.35;;;16.10;99.90;;;;;;5024649;28;25060;-66
2022/07/29 03:07:47;;;;;;;4.70;2.28;;;16.00;99.90;;;;;;5022240;28;25157;-64
2022/07/29 03:10:13;;;;;;;4.20;1.88;;;16.00;99.90;;;;;;5029331;28;25090;-64
2022/07/29 03:12:39;;;;;;;5.15;2.05;;;16.00;99.90;;;;;;5022202;28;25053;-65
2022/07/29 03:15:06;;;;;;;4.63;2.08;;;16.00;99.90;;;;;;5023872;28;25079;-65
2022/07/29 03:17:32;;;;;;;5.40;2.25;;;15.90;99.90;;;;;;5023741;28;25102;-64
2022/07/29 03:19:59;;;;;;;3.22;1.73;;;15.90;99.90;;;;;;5022750;28;25151;-65
2022/07/29 03:22:25;;;;;;;5.72;2.13;;;16.00;99.90;;;;;;5024945;28;25066;-64
2022/07/29 03:24:50;;;;;;;2.28;1.80;;;16.00;99.90;;;;;;5023028;28;25079;-68
2022/07/29 03:27:16;;;;;;;2.55;2.03;;;16.00;99.90;;;;;;5026111;28;25107;-66
2022/07/29 03:29:42;;;;;;;3.90;2.08;;;16.00;99.90;;;;;;5025690;28;25056;-66
2022/07/29 03:32:07;;;;;;;3.92;1.85;;;16.00;99.90;;;;;;5026465;28;25088;-66
2022/07/29 03:34:33;;;;;;;9.40;2.03;;;15.90;99.90;;;;;;5019378;28;25150;-65
2022/07/29 03:36:58;;;;;;;4.75;2.33;;;16.00;99.90;;;;;;5030589;28;25040;-66
2022/07/29 03:39:27;;;;;;;4.13;2.30;;;16.00;99.90;;;;;;5029147;28;25150;-66
2022/07/29 03:41:56;;;;;;;6.50;2.38;;;15.90;99.90;;;;;;5036039;28;25061;-65
2022/07/29 03:44:23;;;;;;;6.40;2.28;;;16.00;99.90;;;;;;5030229;28;25088;-66
2022/07/29 03:46:51;;;;;;;5.13;2.20;;;15.90;99.90;;;;;;5027834;28;25066;-63
2022/07/29 03:49:19;;;;;;;5.00;2.50;;;15.90;99.90;;;;;;5026155;28;25079;-63
2022/07/29 03:51:45;;;;;;;5.28;2.35;;;15.90;99.90;;;;;;5025754;28;25048;-66
2022/07/29 03:54:12;;;;;;;5.38;2.15;;;15.90;99.90;;;;;;5027774;28;25163;-65
2022/07/29 03:56:42;;;;;;;4.90;2.28;;;15.90;99.90;;;;;;5026683;28;25112;-65
2022/07/29 03:59:09;;;;;;;5.80;2.53;;;15.90;99.90;;;;;;5024902;28;25095;-65
2022/07/29 04:01:35;;;;;;;6.28;2.30;;;15.90;99.90;;;;;;5026742;28;25121;-66
2022/07/29 04:04:01;;;;;;;5.70;2.28;;;15.80;99.90;;;;;;5031986;28;25151;-65
2022/07/29 04:06:27;;;;;;;2.78;2.05;;;15.80;99.90;;;;;;5027727;28;25105;-66
2022/07/29 04:08:52;;;;;;;5.75;2.50;;;15.90;99.90;;;;;;5027921;28;25105;-67
2022/07/29 04:11:18;;;;;;;4.65;2.55;;;15.80;99.90;;;;;;5032712;28;25091;-66
2022/07/29 04:13:44;;;;;;;4.90;2.50;;;15.80;99.90;;;;;;5020027;28;25119;-64
2022/07/29 04:16:09;;;;;;;5.32;2.75;;;15.80;99.90;;;;;;5027071;28;25081;-66
2022/07/29 04:18:35;;;;;;;6.82;2.58;;;15.90;99.90;;;;;;5026259;28;25116;-65
2022/07/29 04:21:01;;;;;;;6.57;1.92;;;16.00;99.90;;;;;;5027457;28;25062;-66
2022/07/29 04:23:27;;;;;;;5.55;2.75;;;16.00;99.90;;;;;;5025017;28;25104;-65
2022/07/29 04:25:53;;;;;;;11.75;2.75;;;15.90;99.90;;;;;;5023796;28;25063;-66
2022/07/29 04:28:19;;;;;;;5.70;2.50;;;15.80;99.90;;;;;;5028762;28;25108;-65
2022/07/29 04:30:44;;;;;;;6.32;2.70;;;15.90;99.90;;;;;;5031386;28;25151;-66
2022/07/29 04:33:10;;;;;;;8.90;2.97;;;15.80;99.90;;;;;;5030486;28;25074;-65
2022/07/29 04:35:37;;;;;;;5.55;2.78;;;15.80;99.90;;;;;;5023361;28;25063;-64
2022/07/29 04:38:04;;;;;;;9.25;3.05;;;15.70;99.90;;;;;;5021979;28;25020;-67
2022/07/29 04:40:30;;;;;;;8.93;3.33;;;15.70;99.90;;;;;;5019276;28;25058;-65
2022/07/29 04:42:56;;;;;;;7.40;3.08;;;15.70;99.90;;;;;;5022353;28;25107;-65
2022/07/29 04:45:22;;;;;;;8.32;2.67;;;15.70;99.90;;;;;;5019524;28;25122;-65
2022/07/29 04:47:47;;;;;;;8.52;3.17;;;15.80;99.90;;;;;;5021140;28;25048;-63
2022/07/29 04:50:13;;;;;;;7.35;3.35;;;15.80;99.90;;;;;;5018461;28;25154;-65
2022/07/29 04:52:38;;;;;;;5.70;2.83;;;15.90;99.90;;;;;;5018048;28;25074;-65
2022/07/29 04:55:05;;;;;;;5.95;3.20;;;15.80;99.90;;;;;;5026048;28;25022;-65
2022/07/29 04:57:30;;;;;;;7.68;3.75;;;15.80;99.90;;;;;;5022537;28;25096;-65
2022/07/29 04:59:56;;;;;;;8.82;3.15;;;15.80;99.90;;;;;;5026711;28;25138;-65
2022/07/29 05:02:21;;;;;;;9.43;3.13;;;15.70;99.90;;;;;;5023456;28;25111;-66
2022/07/29 05:04:47;;;;;;;10.82;4.10;;;15.60;99.90;;;;;;5032746;28;25083;-64
2022/07/29 05:07:14;;;;;;;17.42;3.88;;;15.60;99.90;;;;;;5035289;28;25100;-64
2022/07/29 05:09:39;;;;;;;11.35;3.88;;;15.60;99.90;;;;;;5026862;28;25102;-66
2022/07/29 05:12:05;;;;;;;7.63;3.50;;;15.70;99.90;;;;;;5027612;28;25072;-66
2022/07/29 05:14:31;;;;;;;5.80;3.13;;;15.70;99.90;;;;;;5033937;28;25082;-66
2022/07/29 05:16:56;;;;;;;8.10;3.05;;;15.70;99.90;;;;;;5034261;28;25064;-66
2022/07/29 05:19:23;;;;;;;6.38;2.53;;;15.80;99.90;;;;;;5025295;28;25078;-67
2022/07/29 05:21:48;;;;;;;9.02;3.30;;;15.90;99.90;;;;;;5021209;28;25066;-65
2022/07/29 05:24:14;;;;;;;5.78;3.17;;;15.90;99.90;;;;;;5027388;28;25060;-65
2022/07/29 05:26:40;;;;;;;5.82;3.05;;;16.00;99.90;;;;;;5023291;28;25057;-65
2022/07/29 05:29:05;;;;;;;5.07;2.70;;;15.90;99.90;;;;;;5022642;28;25131;-65
2022/07/29 05:31:31;;;;;;;7.85;3.17;;;15.80;99.90;;;;;;5023349;28;25128;-64
2022/07/29 05:33:56;;;;;;;11.07;3.28;;;15.70;99.90;;;;;;5022693;28;25061;-64
2022/07/29 05:36:22;;;;;;;7.55;3.15;;;15.70;99.90;;;;;;5021962;28;25102;-65
2022/07/29 05:38:48;;;;;;;4.78;2.58;;;15.70;99.90;;;;;;5023118;28;26182;-65
2022/07/29 05:41:13;;;;;;;8.50;3.22;;;15.80;99.90;;;;;;5024032;28;25112;-65
2022/07/29 05:43:39;;;;;;;5.85;2.83;;;15.90;99.90;;;;;;5034890;28;25101;-64
2022/07/29 05:46:04;;;;;;;7.68;3.55;;;15.90;99.90;;;;;;5023577;28;25129;-65
2022/07/29 05:48:30;;;;;;;10.13;3.30;;;15.90;99.90;;;;;;5021918;28;25061;-65
2022/07/29 05:50:55;;;;;;;7.95;3.63;;;15.90;99.90;;;;;;5021438;28;25138;-66
2022/07/29 05:53:21;;;;;;;8.98;3.35;;;15.90;99.90;;;;;;5031415;28;25101;-63
2022/07/29 05:55:50;;;;;;;9.63;3.15;;;16.00;99.90;;;;;;5025734;28;25102;-65
2022/07/29 05:58:16;;;;;;;5.90;3.20;;;15.80;99.90;;;;;;5021501;28;25105;-65
2022/07/29 06:00:42;;;;;;;5.35;2.97;;;15.80;99.90;;;;;;5013011;28;25096;-66
2022/07/29 06:03:07;;;;;;;5.15;3.20;;;15.90;99.90;;;;;;5019128;28;25054;-66
2022/07/29 06:05:33;;;;;;;9.93;3.63;;;15.90;99.90;;;;;;5016064;28;25093;-65
2022/07/29 06:07:58;;;;;;;9.65;3.03;;;15.90;99.90;;;;;;5018106;28;25057;-65
2022/07/29 06:10:24;;;;;;;6.72;3.40;;;15.80;99.90;;;;;;5021272;28;25143;-65
2022/07/29 06:12:50;;;;;;;9.20;3.17;;;15.90;99.90;;;;;;5021358;28;25064;-65
2022/07/29 06:15:15;;;;;;;6.30;3.30;;;16.00;99.90;;;;;;5015472;28;25076;-64
2022/07/29 06:17:41;;;;;;;7.97;3.17;;;16.10;99.90;;;;;;5019591;28;25140;-66
2022/07/29 06:20:07;;;;;;;7.30;3.05;;;16.20;99.90;;;;;;5018396;28;25128;-66
2022/07/29 06:22:32;;;;;;;9.05;3.20;;;16.30;99.90;;;;;;5022031;28;25151;-68
2022/07/29 06:24:58;;;;;;;5.72;3.40;;;16.50;99.90;;;;;;5011317;28;25105;-65
2022/07/29 06:27:23;;;;;;;7.82;3.15;;;16.70;99.90;;;;;;5022414;28;25083;-65
2022/07/29 06:29:49;;;;;;;8.48;3.25;;;16.80;99.90;;;;;;5020964;28;25060;-63
2022/07/29 06:32:14;;;;;;;6.80;2.70;;;16.60;99.90;;;;;;5022905;28;25062;-64
2022/07/29 06:34:40;;;;;;;5.00;3.25;;;16.60;99.90;;;;;;5016383;28;24868;-63
2022/07/29 06:37:09;;;;;;;5.18;3.08;;;16.70;99.90;;;;;;5018510;28;25109;-66
2022/07/29 06:39:37;;;;;;;8.15;2.83;;;16.90;99.90;;;;;;5022097;28;25088;-65
2022/07/29 06:42:06;;;;;;;5.68;2.72;;;17.20;99.90;;;;;;5025085;28;25083;-68
2022/07/29 06:44:35;;;;;;;6.78;2.65;;;17.30;99.90;;;;;;5016350;28;25094;-66
2022/07/29 06:47:01;;;;;;;12.18;3.30;;;17.40;99.90;;;;;;5022092;28;25084;-65
2022/07/29 06:49:27;;;;;;;5.70;3.20;;;17.50;99.90;;;;;;5019429;28;25048;-67
2022/07/29 06:51:53;;;;;;;6.95;2.92;;;17.40;99.90;;;;;;5021903;28;25084;-64
2022/07/29 06:54:19;;;;;;;7.88;3.25;;;17.10;99.90;;;;;;5017928;28;25143;-64
2022/07/29 06:56:45;;;;;;;4.82;2.65;;;16.90;99.90;;;;;;5016123;28;25079;-65
2022/07/29 06:59:12;;;;;;;8.32;3.10;;;17.00;99.90;;;;;;5023119;28;25053;-65
2022/07/29 07:01:40;;;;;;;5.45;2.80;;;17.20;99.90;;;;;;5024086;28;25051;-64
2022/07/29 07:04:08;;;;;;;3.63;2.80;;;17.30;99.90;;;;;;5021653;28;25077;-63
2022/07/29 07:06:33;;;;;;;6.72;2.65;;;17.20;99.90;;;;;;5026608;28;25085;-65
2022/07/29 07:08:59;;;;;;;6.85;3.15;;;17.10;99.90;;;;;;5025877;28;25123;-68
2022/07/29 07:11:24;;;;;;;8.57;3.20;;;17.20;99.90;;;;;;5042106;28;25081;-64
2022/07/29 07:13:50;;;;;;;7.55;3.55;;;17.50;99.90;;;;;;5029935;28;25106;-65
2022/07/29 07:16:16;;;;;;;7.75;3.13;;;17.50;99.90;;;;;;5036541;28;25119;-66
2022/07/29 07:18:41;;;;;;;9.00;2.83;;;17.70;99.90;;;;;;5030160;28;25131;-67
2022/07/29 07:21:07;;;;;;;7.40;3.03;;;18.00;99.90;;;;;;5031515;28;25164;-63
2022/07/29 07:23:33;;;;;;;10.43;3.88;;;18.30;99.90;;;;;;5019945;28;25076;-64
2022/07/29 07:25:58;;;;;;;7.63;2.78;;;18.40;99.90;;;;;;5026933;28;25065;-66
2022/07/29 07:28:24;;;;;;;6.20;3.10;;;18.40;99.90;;;;;;5026907;28;25062;-67
2022/07/29 07:30:49;;;;;;;6.93;2.58;;;18.60;99.90;;;;;;5066914;22;25069;-63
2022/07/29 07:33:15;;;;;;;5.93;2.70;;;18.50;99.90;;;;;;5064203;28;25060;-61
2022/07/29 07:35:41;;;;;;;8.80;3.28;;;18.50;99.90;;;;;;5068684;28;25066;-62
2022/07/29 07:38:07;;;;;;;7.82;3.38;;;18.80;99.90;;;;;;5065001;28;25072;-61
2022/07/29 07:40:32;;;;;;;7.55;3.28;;;18.90;99.90;;;;;;5065720;28;25123;-62
2022/07/29 07:42:58;;;;;;;6.32;3.65;;;18.90;99.90;;;;;;5066993;28;25064;-63
2022/07/29 07:45:24;;;;;;;5.63;3.28;;;18.50;99.90;;;;;;5066320;28;25098;-62
2022/07/29 07:47:49;;;;;;;5.93;3.35;;;18.80;99.90;;;;;;5061869;28;25133;-62
2022/07/29 07:50:17;;;;;;;7.20;3.50;;;18.90;99.90;;;;;;5063624;28;25077;-61
2022/07/29 07:52:57;;;;;;;4.65;3.00;;;19.10;99.90;;;;;;5057245;28;25087;-63
2022/07/29 07:55:23;;;;;;;5.10;4.15;;;19.10;99.90;;;;;;5061529;28;25161;-64
2022/07/29 07:57:49;;;;;;;4.65;3.33;;;19.40;99.90;;;;;;5067019;28;25063;-63
2022/07/29 08:00:15;;;;;;;6.22;3.83;;;19.30;99.90;;;;;;5068036;28;25068;-61
2022/07/29 08:02:42;;;;;;;6.82;3.85;;;19.40;99.90;;;;;;5066175;28;25095;-62
2022/07/29 08:05:08;;;;;;;6.55;3.33;;;19.40;99.90;;;;;;5066995;28;25067;-62
2022/07/29 08:07:34;;;;;;;12.00;3.60;;;19.80;99.90;;;;;;5067576;28;25052;-62
2022/07/29 08:09:59;;;;;;;7.95;3.58;;;20.00;99.90;;;;;;5065429;28;25070;-63
2022/07/29 08:12:25;;;;;;;6.18;3.35;;;19.80;99.90;;;;;;5066364;28;25123;-63
2022/07/29 08:14:50;;;;;;;9.15;4.03;;;19.90;99.90;;;;;;5061292;28;25059;-61
2022/07/29 08:17:16;;;;;;;6.68;3.65;;;19.90;99.90;;;;;;5064817;28;25062;-63
2022/07/29 08:19:41;;;;;;;7.88;3.08;;;19.50;99.90;;;;;;5063585;28;25133;-62
2022/07/29 08:22:07;;;;;;;8.48;3.65;;;19.80;99.90;;;;;;5066559;28;25099;-62
2022/07/29 08:24:52;;;;;;;7.32;3.63;;;20.30;99.90;;;;;;5062904;28;25128;-63
2022/07/29 08:27:20;;;;;;;10.13;3.70;;;20.00;99.90;;;;;;5062098;28;25140;-60
2022/07/29 08:29:45;;;;;;;6.88;3.10;;;20.10;99.90;;;;;;5066677;28;25144;-64
2022/07/29 08:32:11;;;;;;;6.53;3.85;;;20.30;99.90;;;;;;5064105;28;25081;-61
2022/07/29 08:34:36;;;;;;;7.25;3.35;;;20.60;99.90;;;;;;5065496;28;25111;-61
2022/07/29 08:37:02;;;;;;;5.05;3.00;;;20.60;99.90;;;;;;5062439;28;25075;-64
2022/07/29 08:39:27;;;;;;;5.03;2.90;;;20.50;99.90;;;;;;5061137;28;25149;-63
2022/07/29 08:41:54;;;;;;;5.93;3.58;;;20.60;99.90;;;;;;5067556;28;25072;-66
2022/07/29 08:44:21;;;;;;;6.97;3.58;;;20.70;99.90;;;;;;5062121;28;25057;-62
2022/07/29 08:46:48;;;;;;;9.00;3.10;;;20.70;99.90;;;;;;5061755;28;25082;-62
2022/07/29 08:49:13;;;;;;;6.43;3.47;;;20.80;99.90;;;;;;5063134;28;25094;-63
2022/07/29 08:51:40;;;;;;;7.05;3.05;;;20.30;99.90;;;;;;5063585;28;25096;-62
2022/07/29 08:54:07;;;;;;;9.88;3.75;;;20.60;99.90;;;;;;5063379;28;25059;-63
2022/07/29 08:56:33;;;;;;;7.45;3.78;;;20.60;99.90;;;;;;5063759;28;25120;-62
2022/07/29 08:59:03;;;;;;;8.27;3.55;;;20.60;99.90;;;;;;5066692;28;25076;-62
2022/07/29 09:01:31;;;;;;;5.32;3.20;;;20.90;99.90;;;;;;5067070;28;25081;-67
2022/07/29 09:04:00;;;;;;;6.60;3.47;;;21.00;99.90;;;;;;5062565;28;25073;-63
2022/07/29 09:06:32;;;;;;;7.20;3.05;;;21.40;99.90;;;;;;5065215;28;25074;-61
2022/07/29 09:08:59;;;;;;;5.63;3.25;;;21.50;99.90;;;;;;5067271;28;25047;-61
2022/07/29 09:11:25;;;;;;;9.18;3.50;;;21.40;99.90;;;;;;5063497;28;25114;-61
2022/07/29 09:13:51;;;;;;;5.50;3.17;;;21.20;99.90;;;;;;5061798;28;25059;-62
2022/07/29 09:16:16;;;;;;;8.93;3.28;;;21.10;99.90;;;;;;5060942;28;25103;-62
2022/07/29 09:18:44;;;;;;;8.55;2.90;;;20.90;99.90;;;;;;5056948;28;25121;-61
2022/07/29 09:24:04;;;;;;;7.80;4.10;;;22.10;99.90;;;;;;5053530;28;25144;-62
2022/07/29 09:26:41;;;;;;;8.55;3.88;;;22.00;99.90;;;;;;5066569;28;25091;-63
2022/07/29 09:29:15;;;;;;;9.30;3.72;;;21.90;99.90;;;;;;5051900;28;25120;-62
2022/07/29 09:31:43;;;;;;;13.35;3.55;;;21.60;99.90;;;;;;5064789;28;25485;-60
2022/07/29 09:34:11;;;;;;;9.93;3.60;;;21.80;99.90;;;;;;5057543;28;25061;-62
2022/07/29 09:36:42;;;;;;;6.88;2.72;;;21.80;99.90;;;;;;5061442;28;25068;-61
2022/07/29 09:39:07;;;;;;;6.15;3.28;;;21.80;99.90;;;;;;5063969;28;25056;-62
2022/07/29 09:41:45;;;;;;;7.78;3.65;;;22.00;99.90;;;;;;5058910;28;25073;-61
2022/07/29 09:44:11;;;;;;;9.50;3.97;;;22.60;99.90;;;;;;5064773;28;25076;-60
2022/07/29 09:46:37;;;;;;;3.88;2.85;;;22.90;99.90;;;;;;5060580;28;25059;-62
2022/07/29 09:49:13;;;;;;;7.90;3.03;;;22.90;99.90;;;;;;5066278;28;25079;-63
2022/07/29 09:51:39;;;;;;;8.15;2.72;;;22.50;99.90;;;;;;5060713;28;25066;-64
2022/07/29 09:54:25;;;;;;;6.18;2.70;;;22.80;99.90;;;;;;5064801;28;25061;-62
2022/07/29 09:56:52;;;;;;;6.38;2.67;;;22.70;99.90;;;;;;5066943;28;25174;-64
2022/07/29 09:59:20;;;;;;;7.57;2.88;;;23.10;99.90;;;;;;5056941;28;25061;-62
2022/07/29 10:01:46;;;;;;;6.03;2.50;;;23.20;99.90;;;;;;5064420;28;25160;-61
2022/07/29 10:04:12;;;;;;;7.63;2.42;;;23.10;99.90;;;;;;5060566;28;25100;-61
2022/07/29 10:06:56;;;;;;;5.18;2.42;;;23.20;99.90;;;;;;5061831;28;25056;-62
2022/07/29 10:09:22;;;;;;;6.43;2.97;;;23.30;99.90;;;;;;5061444;28;25058;-61
2022/07/29 10:12:06;;;;;;;7.03;2.55;;;23.20;99.90;;;;;;5060990;28;25093;-62
2022/07/29 10:14:33;;;;;;;7.03;2.30;;;23.30;99.90;;;;;;5061795;28;25062;-62
2022/07/29 10:17:04;;;;;;;7.40;2.60;;;23.10;99.90;;;;;;5062867;28;25072;-64
2022/07/29 10:19:31;;;;;;;5.88;3.25;;;23.30;99.90;;;;;;5061614;28;25095;-62
2022/07/29 10:21:58;;;;;;;5.85;2.50;;;23.50;99.90;;;;;;5066026;28;25114;-62
2022/07/29 10:24:26;;;;;;;7.50;2.75;;;23.80;99.90;;;;;;5065038;28;25109;-62
2022/07/29 10:26:54;;;;;;;4.57;2.75;;;24.00;99.90;;;;;;5066273;28;25149;-64
2022/07/29 10:29:20;;;;;;;6.53;2.90;;;23.80;99.90;;;;;;5069884;28;25065;-64
2022/07/29 10:31:57;;;;;;;5.15;2.60;;;23.60;99.90;;;;;;5064826;28;25061;-63
2022/07/29 10:34:36;;;;;;;5.93;2.92;;;23.90;99.90;;;;;;5064110;28;25083;-61
2022/07/29 10:37:12;;;;;;;8.98;2.90;;;23.60;99.90;;;;;;5057952;28;25059;-61
2022/07/29 10:41:25;;;;;;;6.97;2.45;;;24.30;99.90;;;;;;5065169;28;25096;-63
2022/07/29 10:42:50;;;;;;;9.45;3.22;;;24.30;99.90;;;;;;5057462;28;25077;-62
2022/07/29 10:45:17;;;;;;;5.85;2.63;;;24.60;99.90;;;;;;5062297;28;25089;-61
2022/07/29 10:47:43;;;;;;;5.03;2.25;;;24.50;95.90;;;;;;5061846;28;25058;-62
2022/07/29 10:50:08;;;;;;;6.63;1.73;;;23.90;89.90;;;;;;5062826;28;25059;-64
2022/07/29 10:52:49;;;;;;;3.55;1.50;;;23.80;90.00;;;;;;5061454;28;25077;-63
2022/07/29 10:55:49;;;;;;;7.35;1.63;;;24.00;82.50;;;;;;5057616;28;25138;-62
2022/07/29 10:58:17;;;;;;;7.35;1.92;;;24.40;75.40;;;;;;5024016;28;25111;-62
2022/07/29 11:00:43;;;;;;;7.00;1.73;;;24.80;78.50;;;;;;5058574;28;25066;-64
2022/07/29 11:03:09;;;;;;;6.40;1.60;;;24.50;79.40;;;;;;5059644;28;25077;-62
2022/07/29 11:05:55;;;;;;;4.10;1.50;;;24.60;75.40;;;;;;5060178;28;25136;-61
2022/07/29 11:08:23;;;;;;;6.50;2.30;;;24.80;79.00;;;;;;5065793;28;25059;-61
2022/07/29 11:10:50;;;;;;;7.20;2.38;;;24.30;84.60;;;;;;5063309;28;25141;-61
2022/07/29 11:13:43;;;;;;;5.80;1.83;;;24.50;85.20;;;;;;5063859;28;25060;-61
2022/07/29 11:16:09;;;;;;;5.03;1.80;;;25.30;67.30;;;;;;5058443;28;25148;-61
2022/07/29 11:18:34;;;;;;;8.52;1.83;;;25.20;66.70;;;;;;5058956;28;25074;-62
2022/07/29 11:21:00;;;;;;;4.45;1.65;;;24.90;76.20;;;;;;5058704;28;25116;-64
2022/07/29 11:23:31;;;;;;;8.07;2.20;;;24.80;68.10;;;;;;5055009;28;25085;-62
2022/07/29 11:26:15;;;;;;;6.38;2.70;;;25.40;75.80;;;;;;5057979;28;25086;-61
2022/07/29 11:29:02;;;;;;;5.13;1.88;;;25.60;64.20;;;;;;5058022;28;25060;-62
2022/07/29 11:31:36;;;;;;;3.80;1.80;;;25.30;56.70;;;;;;5060651;28;25137;-62
2022/07/29 11:34:29;;;;;;;8.85;2.10;;;25.00;58.90;;;;;;5058538;28;25074;-60
2022/07/29 11:37:13;;;;;;;6.97;1.80;;;25.40;57.80;;;;;;5053137;28;25063;-62
2022/07/29 11:39:56;;;;;;;6.88;2.17;;;25.80;68.00;;;;;;5057906;28;25077;-63
2022/07/29 11:42:24;;;;;;;5.60;2.30;;;25.80;59.20;;;;;;5059674;28;25054;-61
2022/07/29 11:44:58;;;;;;;5.43;1.50;;;26.00;62.50;;;;;;5052103;28;25056;-60
2022/07/29 11:47:28;;;;;;;8.15;1.80;;;26.40;54.30;;;;;;5058009;28;25133;-62
2022/07/29 11:49:56;;;;;;;5.40;1.60;;;27.00;45.60;;;;;;5052511;28;25095;-63
2022/07/29 11:52:22;;;;;;;8.60;1.98;;;26.50;38.70;;;;;;5056879;28;25062;-61
2022/07/29 11:54:49;;;;;;;8.00;1.70;;;26.90;29.90;;;;;;5061266;28;25113;-64
2022/07/29 11:57:17;;;;;;;3.53;1.52;;;26.10;37.90;;;;;;5064937;28;25054;-62
2022/07/29 11:59:45;;;;;;;7.72;1.77;;;26.10;39.50;;;;;;5067744;28;25117;-60
2022/07/29 12:02:11;;;;;;;2.85;1.48;;;26.40;36.90;;;;;;5067012;28;25078;-62
2022/07/29 12:04:55;;;;;;;5.75;1.70;;;26.20;31.30;;;;;;5068993;28;25128;-63
2022/07/29 12:07:31;;;;;;;4.63;1.85;;;26.00;36.90;;;;;;5058663;28;25058;-61
2022/07/29 12:09:57;;;;;;;2.97;1.98;;;26.00;39.00;;;;;;5062764;28;25079;-61
2022/07/29 12:12:23;;;;;;;6.50;2.42;;;26.20;41.70;;;;;;5063780;28;25146;-62
2022/07/29 12:14:49;;;;;;;6.50;1.80;;;26.10;38.70;;;;;;5067581;28;25098;-61
2022/07/29 12:17:28;;;;;;;5.05;2.05;;;26.00;36.90;;;;;;5060133;28;25129;-61
2022/07/29 12:19:54;;;;;;;2.90;1.77;;;26.00;36.00;;;;;;5062502;28;25066;-62
2022/07/29 12:22:33;;;;;;;4.05;2.13;;;26.00;39.60;;;;;;5063437;28;25058;-60
2022/07/29 12:25:22;;;;;;;7.05;2.05;;;25.80;48.10;;;;;;5063188;28;25072;-61
2022/07/29 12:27:57;;;;;;;8.80;2.00;;;25.70;51.10;;;;;;5061811;28;25092;-62
2022/07/29 12:30:23;;;;;;;9.30;1.70;;;25.80;50.10;;;;;;5067294;28;25069;-60
2022/07/29 12:32:48;;;;;;;6.57;1.70;;;26.20;47.40;;;;;;5062482;28;25106;-63
2022/07/29 12:35:16;;;;;;;7.03;2.03;;;26.30;41.10;;;;;;5061778;28;25115;-62
2022/07/29 12:37:43;;;;;;;6.43;2.33;;;26.00;39.50;;;;;;5066079;28;25156;-60
2022/07/29 12:40:12;;;;;;;6.05;1.48;;;25.70;42.50;;;;;;5061106;28;25099;-61
2022/07/29 12:42:38;;;;;;;4.38;2.20;;;26.20;45.90;;;;;;5065326;28;25127;-61
2022/07/29 12:45:05;;;;;;;4.50;2.20;;;26.30;36.90;;;;;;5059515;28;25061;-61
2022/07/29 12:47:31;;;;;;;5.78;2.42;;;26.40;34.20;;;;;;5058244;28;25155;-63
2022/07/29 12:50:11;;;;;;;6.00;2.00;;;26.90;31.70;;;;;;5064296;28;25059;-61
2022/07/29 12:52:36;;;;;;;5.95;2.67;;;26.60;31.30;;;;;;5061830;28;25070;-61
2022/07/29 12:55:03;;;;;;;6.13;1.80;;;25.70;39.40;;;;;;5057816;28;25076;-62
2022/07/29 12:57:29;;;;;;;5.57;1.88;;;25.80;48.70;;;;;;5057529;28;25103;-61
2022/07/29 13:00:09;;;;;;;6.80;1.92;;;25.90;47.20;;;;;;5065277;28;25102;-61